Los Angeles, California
Traffic Map
Current Weather Conditions
Los Angeles, California
Clear Haze
Clear
75°
Feels Like: 75°
Wind Chill: 75° Ceiling: Unl
Heat Index: 75° Visibility: 5mi
Dew Point: 65° Wind: 0mph
Humidity: 71% Direction: ° ()
Pressure: 29.87in Gusts: 0mph
Raw Report DataKCQT 301647Z AUTO 00000KT 5SM HZ CLR 24/18 A2987 RMK AO2 SLP113 T02390183 $
Traffic Incident Summary
Active as of:
Severity:
Category:
InformationThere was an issue retrieving the traffic information for this location. Please try a different location or try again shortly.
Advertisements
Track Severe Weather on mobile